sensor_id;sensor_type;location;lat;lon;timestamp;pressure;altitude;pressure_sealevel;temperature;humidity
48200;BME280;33990;44.602;10.976;2023-02-20T00:01:36;101958.16;;;20.27;44.49
48200;BME280;33990;44.602;10.976;2023-02-20T00:04:03;101958.16;;;20.27;44.58
48200;BME280;33990;44.602;10.976;2023-02-20T00:06:30;101967.06;;;20.28;44.67
48200;BME280;33990;44.602;10.976;2023-02-20T00:08:58;101967.06;;;20.28;44.86
48200;BME280;33990;44.602;10.976;2023-02-20T00:11:25;101969.03;;;20.25;44.69
48200;BME280;33990;44.602;10.976;2023-02-20T00:13:52;101971.59;;;20.27;44.65
48200;BME280;33990;44.602;10.976;2023-02-20T00:16:20;101974.41;;;20.25;44.72
48200;BME280;33990;44.602;10.976;2023-02-20T00:18:47;101975.28;;;20.26;44.73
48200;BME280;33990;44.602;10.976;2023-02-20T00:21:14;101958.28;;;20.25;44.81
48200;BME280;33990;44.602;10.976;2023-02-20T00:23:42;101957.38;;;20.25;44.51
48200;BME280;33990;44.602;10.976;2023-02-20T00:26:11;101960.97;;;20.25;44.40
48200;BME280;33990;44.602;10.976;2023-02-20T00:28:41;101954.69;;;20.25;44.60
48200;BME280;33990;44.602;10.976;2023-02-20T00:31:13;101959.22;;;20.24;44.48
48200;BME280;33990;44.602;10.976;2023-02-20T00:33:41;101955.59;;;20.25;44.66
48200;BME280;33990;44.602;10.976;2023-02-20T00:36:14;101958.38;;;20.24;44.50
48200;BME280;33990;44.602;10.976;2023-02-20T00:38:43;101971.81;;;20.24;44.52
48200;BME280;33990;44.602;10.976;2023-02-20T00:41:12;101971.81;;;20.24;44.53
48200;BME280;33990;44.602;10.976;2023-02-20T00:43:41;101979.03;;;20.23;44.53
48200;BME280;33990;44.602;10.976;2023-02-20T00:46:13;101978.06;;;20.24;44.47
48200;BME280;33990;44.602;10.976;2023-02-20T00:48:42;101976.34;;;20.23;44.65
48200;BME280;33990;44.602;10.976;2023-02-20T00:51:48;101980.00;;;20.22;44.60
48200;BME280;33990;44.602;10.976;2023-02-20T00:54:15;101987.09;;;20.23;44.68
48200;BME280;33990;44.602;10.976;2023-02-20T00:56:44;101981.72;;;20.23;44.74
48200;BME280;33990;44.602;10.976;2023-02-20T00:59:11;101977.31;;;20.22;44.71
48200;BME280;33990;44.602;10.976;2023-02-20T01:01:40;101980.00;;;20.22;44.72
48200;BME280;33990;44.602;10.976;2023-02-20T01:04:07;101988.06;;;20.22;44.80
48200;BME280;33990;44.602;10.976;2023-02-20T01:06:34;101993.44;;;20.22;44.87
48200;BME280;33990;44.602;10.976;2023-02-20T01:09:02;101994.41;;;20.21;44.78
48200;BME280;33990;44.602;10.976;2023-02-20T01:11:29;101990.84;;;20.21;44.66
48200;BME280;33990;44.602;10.976;2023-02-20T01:13:58;101995.28;;;20.22;44.91
48200;BME280;33990;44.602;10.976;2023-02-20T01:16:25;101994.41;;;20.21;44.67
48200;BME280;33990;44.602;10.976;2023-02-20T01:18:53;101997.09;;;20.21;44.94
48200;BME280;33990;44.602;10.976;2023-02-20T01:21:20;101999.78;;;20.21;44.87
48200;BME280;33990;44.602;10.976;2023-02-20T01:23:48;101999.78;;;20.21;44.87
48200;BME280;33990;44.602;10.976;2023-02-20T01:26:15;101992.69;;;20.20;44.91
48200;BME280;33990;44.602;10.976;2023-02-20T01:28:47;101997.19;;;20.20;44.87
48200;BME280;33990;44.602;10.976;2023-02-20T01:31:17;102006.13;;;20.20;44.95
48200;BME280;33990;44.602;10.976;2023-02-20T01:33:45;102015.91;;;20.21;44.79
48200;BME280;33990;44.602;10.976;2023-02-20T01:36:13;102016.88;;;20.20;44.91
48200;BME280;33990;44.602;10.976;2023-02-20T01:38:41;102008.81;;;20.20;44.85
48200;BME280;33990;44.602;10.976;2023-02-20T01:41:09;102010.78;;;20.18;45.02
48200;BME280;33990;44.602;10.976;2023-02-20T01:43:37;102009.91;;;20.18;44.92
48200;BME280;33990;44.602;10.976;2023-02-20T01:49:09;102036.81;;;20.18;44.95
48200;BME280;33990;44.602;10.976;2023-02-20T01:51:41;102023.44;;;20.16;44.97
48200;BME280;33990;44.602;10.976;2023-02-20T01:54:13;102025.16;;;20.17;45.02
48200;BME280;33990;44.602;10.976;2023-02-20T01:56:42;102024.28;;;20.17;44.83
48200;BME280;33990;44.602;10.976;2023-02-20T01:59:12;102018.06;;;20.16;44.77
48200;BME280;33990;44.602;10.976;2023-02-20T02:01:40;102018.06;;;20.16;44.86
48200;BME280;33990;44.602;10.976;2023-02-20T02:04:09;102024.41;;;20.15;44.56
48200;BME280;33990;44.602;10.976;2023-02-20T02:06:41;102019.91;;;20.16;44.81
48200;BME280;33990;44.602;10.976;2023-02-20T02:12:03;102032.59;;;20.14;44.77
48200;BME280;33990;44.602;10.976;2023-02-20T02:14:31;102028.09;;;20.14;44.76
48200;BME280;33990;44.602;10.976;2023-02-20T02:17:21;102026.25;;;20.15;44.69
48200;BME280;33990;44.602;10.976;2023-02-20T02:20:30;102021.72;;;20.15;44.86
48200;BME280;33990;44.602;10.976;2023-02-20T02:26:01;102027.09;;;20.15;44.98
48200;BME280;33990;44.602;10.976;2023-02-20T02:28:54;102024.53;;;20.14;44.90
48200;BME280;33990;44.602;10.976;2023-02-20T02:34:56;102028.09;;;20.14;44.81
48200;BME280;33990;44.602;10.976;2023-02-20T02:37:26;102024.53;;;20.14;44.88
48200;BME280;33990;44.602;10.976;2023-02-20T02:48:25;102042.47;;;20.13;45.17
48200;BME280;33990;44.602;10.976;2023-02-20T02:51:01;102050.53;;;20.13;45.30
48200;BME280;33990;44.602;10.976;2023-02-20T02:53:29;102055.06;;;20.13;45.06
48200;BME280;33990;44.602;10.976;2023-02-20T02:55:57;102056.88;;;20.12;45.44
48200;BME280;33990;44.602;10.976;2023-02-20T02:58:45;102059.56;;;20.12;45.25
48200;BME280;33990;44.602;10.976;2023-02-20T03:01:14;102064.97;;;20.12;45.31
48200;BME280;33990;44.602;10.976;2023-02-20T03:03:51;102074.72;;;20.13;45.25
48200;BME280;33990;44.602;10.976;2023-02-20T03:06:28;102081.09;;;20.12;45.31
48200;BME280;33990;44.602;10.976;2023-02-20T03:11:31;102080.09;;;20.13;45.50
48200;BME280;33990;44.602;10.976;2023-02-20T03:14:13;102083.78;;;20.12;45.35
48200;BME280;33990;44.602;10.976;2023-02-20T03:19:54;102083.91;;;20.11;45.56
48200;BME280;33990;44.602;10.976;2023-02-20T03:24:53;102081.28;;;20.09;45.47
48200;BME280;33990;44.602;10.976;2023-02-20T03:27:34;102089.28;;;20.11;45.60
48200;BME280;33990;44.602;10.976;2023-02-20T03:32:45;102101.84;;;20.10;45.47
48200;BME280;33990;44.602;10.976;2023-02-20T03:35:34;102110.88;;;20.09;45.54
48200;BME280;33990;44.602;10.976;2023-02-20T03:38:23;102107.31;;;20.09;45.69
48200;BME280;33990;44.602;10.976;2023-02-20T03:41:12;102114.53;;;20.08;45.43
48200;BME280;33990;44.602;10.976;2023-02-20T03:44:03;102117.13;;;20.10;45.67
48200;BME280;33990;44.602;10.976;2023-02-20T03:46:35;102117.22;;;20.08;45.74
48200;BME280;33990;44.602;10.976;2023-02-20T03:49:12;102117.22;;;20.08;45.70
48200;BME280;33990;44.602;10.976;2023-02-20T03:51:44;102117.22;;;20.08;45.79
48200;BME280;33990;44.602;10.976;2023-02-20T03:54:39;102129.69;;;20.09;45.82
48200;BME280;33990;44.602;10.976;2023-02-20T03:57:32;102128.81;;;20.09;45.68
48200;BME280;33990;44.602;10.976;2023-02-20T04:00:02;102138.72;;;20.08;45.71
48200;BME280;33990;44.602;10.976;2023-02-20T04:02:43;102141.41;;;20.08;45.81
48200;BME280;33990;44.602;10.976;2023-02-20T04:05:20;102137.00;;;20.07;45.67
48200;BME280;33990;44.602;10.976;2023-02-20T04:07:59;102132.50;;;20.08;45.68
48200;BME280;33990;44.602;10.976;2023-02-20T04:11:05;102140.56;;;20.08;45.97
48200;BME280;33990;44.602;10.976;2023-02-20T04:13:32;102135.19;;;20.08;45.91
48200;BME280;33990;44.602;10.976;2023-02-20T04:16:01;102128.09;;;20.07;45.88
48200;BME280;33990;44.602;10.976;2023-02-20T04:18:29;102123.56;;;20.07;45.73
48200;BME280;33990;44.602;10.976;2023-02-20T04:20:59;102126.25;;;20.07;45.73
48200;BME280;33990;44.602;10.976;2023-02-20T04:23:37;102130.66;;;20.08;45.90
48200;BME280;33990;44.602;10.976;2023-02-20T04:26:16;102133.34;;;20.08;45.79
48200;BME280;33990;44.602;10.976;2023-02-20T04:28:46;102127.13;;;20.08;45.82
48200;BME280;33990;44.602;10.976;2023-02-20T04:31:17;102132.50;;;20.08;45.68
48200;BME280;33990;44.602;10.976;2023-02-20T04:33:46;102128.09;;;20.07;45.84
48200;BME280;33990;44.602;10.976;2023-02-20T04:36:23;102127.97;;;20.08;45.78
48200;BME280;33990;44.602;10.976;2023-02-20T04:38:53;102131.63;;;20.07;45.72
48200;BME280;33990;44.602;10.976;2023-02-20T04:41:24;102132.50;;;20.08;45.89
48200;BME280;33990;44.602;10.976;2023-02-20T04:43:52;102140.56;;;20.08;45.93
48200;BME280;33990;44.602;10.976;2023-02-20T04:46:44;102145.94;;;20.08;45.95
48200;BME280;33990;44.602;10.976;2023-02-20T04:49:13;102144.09;;;20.08;45.88
48200;BME280;33990;44.602;10.976;2023-02-20T04:51:42;102147.75;;;20.07;45.96
48200;BME280;33990;44.602;10.976;2023-02-20T04:54:10;102151.44;;;20.06;46.07
48200;BME280;33990;44.602;10.976;2023-02-20T04:56:37;102145.19;;;20.06;45.98
48200;BME280;33990;44.602;10.976;2023-02-20T04:59:06;102143.44;;;20.05;46.13
48200;BME280;33990;44.602;10.976;2023-02-20T05:01:33;102150.56;;;20.06;46.14
48200;BME280;33990;44.602;10.976;2023-02-20T05:04:01;102151.50;;;20.05;46.14
48200;BME280;33990;44.602;10.976;2023-02-20T05:06:28;102154.13;;;20.06;46.12
48200;BME280;33990;44.602;10.976;2023-02-20T05:08:55;102153.34;;;20.04;45.91
48200;BME280;33990;44.602;10.976;2023-02-20T05:11:23;102153.34;;;20.04;46.03
48200;BME280;33990;44.602;10.976;2023-02-20T05:13:50;102151.63;;;20.03;45.97
48200;BME280;33990;44.602;10.976;2023-02-20T05:16:18;102150.66;;;20.04;45.85
48200;BME280;33990;44.602;10.976;2023-02-20T05:18:45;102157.84;;;20.04;45.99
48200;BME280;33990;44.602;10.976;2023-02-20T05:21:13;102154.31;;;20.03;45.94
48200;BME280;33990;44.602;10.976;2023-02-20T05:23:59;102156.16;;;20.03;45.86
48200;BME280;33990;44.602;10.976;2023-02-20T05:26:27;102158.84;;;20.03;45.87
48200;BME280;33990;44.602;10.976;2023-02-20T05:28:54;102167.75;;;20.03;45.94
48200;BME280;33990;44.602;10.976;2023-02-20T05:31:21;102165.06;;;20.03;45.99
48200;BME280;33990;44.602;10.976;2023-02-20T05:33:49;102165.06;;;20.03;45.85
48200;BME280;33990;44.602;10.976;2023-02-20T05:36:16;102167.75;;;20.03;45.81
48200;BME280;33990;44.602;10.976;2023-02-20T05:38:43;102164.22;;;20.03;45.78
48200;BME280;33990;44.602;10.976;2023-02-20T05:41:15;102167.75;;;20.03;45.95
48200;BME280;33990;44.602;10.976;2023-02-20T05:43:43;102160.66;;;20.02;45.98
48200;BME280;33990;44.602;10.976;2023-02-20T05:46:11;102166.91;;;20.03;45.97
48200;BME280;33990;44.602;10.976;2023-02-20T05:48:39;102161.53;;;20.03;45.98
48200;BME280;33990;44.602;10.976;2023-02-20T05:51:06;102173.13;;;20.03;46.03
48200;BME280;33990;44.602;10.976;2023-02-20T05:53:33;102170.44;;;20.03;46.19
48200;BME280;33990;44.602;10.976;2023-02-20T05:56:02;102168.63;;;20.04;46.09
48200;BME280;33990;44.602;10.976;2023-02-20T05:58:29;102172.16;;;20.04;46.14
48200;BME280;33990;44.602;10.976;2023-02-20T06:00:57;102166.91;;;20.03;46.05
48200;BME280;33990;44.602;10.976;2023-02-20T06:03:25;102166.78;;;20.04;45.97
48200;BME280;33990;44.602;10.976;2023-02-20T06:05:52;102166.78;;;20.04;45.97
48200;BME280;33990;44.602;10.976;2023-02-20T06:08:22;102171.41;;;20.02;45.98
48200;BME280;33990;44.602;10.976;2023-02-20T06:10:49;102170.56;;;20.02;46.14
48200;BME280;33990;44.602;10.976;2023-02-20T06:13:16;102171.41;;;20.02;45.86
48200;BME280;33990;44.602;10.976;2023-02-20T06:15:44;102179.47;;;20.02;46.04
48200;BME280;33990;44.602;10.976;2023-02-20T06:18:11;102184.00;;;20.02;45.93
48200;BME280;33990;44.602;10.976;2023-02-20T06:20:38;102184.84;;;20.02;45.87
48200;BME280;33990;44.602;10.976;2023-02-20T06:23:06;102182.16;;;20.02;45.85
48200;BME280;33990;44.602;10.976;2023-02-20T06:25:33;102185.81;;;20.01;45.86
48200;BME280;33990;44.602;10.976;2023-02-20T06:28:00;102187.63;;;20.00;45.89
48200;BME280;33990;44.602;10.976;2023-02-20T06:30:28;102187.63;;;20.00;45.84
48200;BME280;33990;44.602;10.976;2023-02-20T06:32:55;102184.09;;;20.00;45.61
48200;BME280;33990;44.602;10.976;2023-02-20T06:35:22;102191.28;;;19.99;45.71
48200;BME280;33990;44.602;10.976;2023-02-20T06:37:50;102184.09;;;20.00;45.87
48200;BME280;33990;44.602;10.976;2023-02-20T06:40:17;102178.81;;;19.98;45.76
48200;BME280;33990;44.602;10.976;2023-02-20T06:42:44;102179.69;;;19.99;45.65
48200;BME280;33990;44.602;10.976;2023-02-20T06:45:12;102187.75;;;19.99;45.78
48200;BME280;33990;44.602;10.976;2023-02-20T06:47:41;102187.75;;;19.99;45.84
48200;BME280;33990;44.602;10.976;2023-02-20T06:50:08;102187.75;;;19.99;45.77
48200;BME280;33990;44.602;10.976;2023-02-20T06:52:36;102188.59;;;19.99;45.69
48200;BME280;33990;44.602;10.976;2023-02-20T06:55:03;102192.25;;;19.98;45.94
48200;BME280;33990;44.602;10.976;2023-02-20T06:57:31;102197.53;;;20.00;45.63
48200;BME280;33990;44.602;10.976;2023-02-20T06:59:59;102196.66;;;19.99;45.76
48200;BME280;33990;44.602;10.976;2023-02-20T07:02:26;102204.72;;;19.99;45.96
48200;BME280;33990;44.602;10.976;2023-02-20T07:04:53;102208.28;;;20.00;45.79
48200;BME280;33990;44.602;10.976;2023-02-20T07:07:20;102210.97;;;20.00;45.82
48200;BME280;33990;44.602;10.976;2023-02-20T07:09:48;102209.25;;;19.99;45.92
48200;BME280;33990;44.602;10.976;2023-02-20T07:12:15;102217.31;;;19.99;45.88
48200;BME280;33990;44.602;10.976;2023-02-20T07:14:42;102226.22;;;19.99;45.83
48200;BME280;33990;44.602;10.976;2023-02-20T07:17:10;102232.47;;;20.00;46.01
48200;BME280;33990;44.602;10.976;2023-02-20T07:19:37;102223.53;;;19.99;45.92
48200;BME280;33990;44.602;10.976;2023-02-20T07:22:05;102234.28;;;19.99;45.87
48200;BME280;33990;44.602;10.976;2023-02-20T07:24:32;102230.75;;;19.99;46.06
48200;BME280;33990;44.602;10.976;2023-02-20T07:27:02;102231.59;;;19.99;46.13
48200;BME280;33990;44.602;10.976;2023-02-20T07:29:29;102245.91;;;20.00;46.41
48200;BME280;33990;44.602;10.976;2023-02-20T07:31:57;102249.47;;;20.00;46.32
48200;BME280;33990;44.602;10.976;2023-02-20T07:34:24;102251.28;;;20.00;46.18
48200;BME280;33990;44.602;10.976;2023-02-20T07:36:51;102249.47;;;20.00;46.20
48200;BME280;33990;44.602;10.976;2023-02-20T07:39:19;102254.84;;;20.00;46.12
48200;BME280;33990;44.602;10.976;2023-02-20T07:41:49;102254.09;;;19.98;45.16
48200;BME280;33990;44.602;10.976;2023-02-20T07:44:52;102258.34;;;19.88;44.70
48200;BME280;33990;44.602;10.976;2023-02-20T07:47:19;102266.41;;;19.88;45.96
48200;BME280;33990;44.602;10.976;2023-02-20T07:49:47;102260.94;;;19.90;46.12
48200;BME280;33990;44.602;10.976;2023-02-20T07:52:14;102255.63;;;19.88;45.51
48200;BME280;33990;44.602;10.976;2023-02-20T07:54:41;102260.94;;;19.90;45.59
48200;BME280;33990;44.602;10.976;2023-02-20T07:57:09;102254.72;;;19.89;45.38
48200;BME280;33990;44.602;10.976;2023-02-20T07:59:36;102260.94;;;19.90;45.08
48200;BME280;33990;44.602;10.976;2023-02-20T08:02:04;102269.84;;;19.90;45.86
48200;BME280;33990;44.602;10.976;2023-02-20T08:04:31;102262.53;;;19.92;45.79
48200;BME280;33990;44.602;10.976;2023-02-20T08:06:59;102257.94;;;19.94;45.53
48200;BME280;33990;44.602;10.976;2023-02-20T08:09:26;102257.94;;;19.94;45.35
48200;BME280;33990;44.602;10.976;2023-02-20T08:11:54;102257.94;;;19.94;45.04
48200;BME280;33990;44.602;10.976;2023-02-20T08:14:21;102269.44;;;19.96;44.35
48200;BME280;33990;44.602;10.976;2023-02-20T08:16:49;102268.59;;;19.96;45.06
48200;BME280;33990;44.602;10.976;2023-02-20T08:19:16;102267.59;;;19.97;44.85
48200;BME280;33990;44.602;10.976;2023-02-20T08:21:43;102266.66;;;19.98;44.84
48200;BME280;33990;44.602;10.976;2023-02-20T08:24:15;102271.94;;;19.99;44.62
48200;BME280;33990;44.602;10.976;2023-02-20T08:26:44;102264.72;;;20.00;44.60
48200;BME280;33990;44.602;10.976;2023-02-20T08:29:12;102263.66;;;20.03;45.48
48200;BME280;33990;44.602;10.976;2023-02-20T08:31:40;102271.63;;;20.04;44.35
48200;BME280;33990;44.602;10.976;2023-02-20T08:34:07;102266.16;;;20.06;45.12
48200;BME280;33990;44.602;10.976;2023-02-20T08:36:35;102266.78;;;20.09;45.35
48200;BME280;33990;44.602;10.976;2023-02-20T08:39:02;102265.84;;;20.10;46.00
48200;BME280;33990;44.602;10.976;2023-02-20T08:41:30;102271.97;;;20.12;45.61
48200;BME280;33990;44.602;10.976;2023-02-20T08:43:57;102264.69;;;20.14;45.70
48200;BME280;33990;44.602;10.976;2023-02-20T08:46:25;102268.13;;;20.16;45.48
48200;BME280;33990;44.602;10.976;2023-02-20T08:48:52;102268.91;;;20.18;45.69
48200;BME280;33990;44.602;10.976;2023-02-20T08:51:20;102274.03;;;20.21;45.68
48200;BME280;33990;44.602;10.976;2023-02-20T08:53:47;102265.03;;;20.22;44.92
48200;BME280;33990;44.602;10.976;2023-02-20T08:56:20;102260.72;;;20.20;43.33
48200;BME280;33990;44.602;10.976;2023-02-20T08:58:47;102264.38;;;20.19;44.46
48200;BME280;33990;44.602;10.976;2023-02-20T09:01:14;102263.28;;;20.21;44.78
48200;BME280;33990;44.602;10.976;2023-02-20T09:03:42;102261.38;;;20.23;45.43
48200;BME280;33990;44.602;10.976;2023-02-20T09:06:09;102259.47;;;20.25;45.67
48200;BME280;33990;44.602;10.976;2023-02-20T09:08:37;102259.22;;;20.29;45.50
48200;BME280;33990;44.602;10.976;2023-02-20T09:11:05;102264.53;;;20.30;45.51
48200;BME280;33990;44.602;10.976;2023-02-20T09:13:43;102267.22;;;20.30;45.35
48200;BME280;33990;44.602;10.976;2023-02-20T09:16:15;102269.78;;;20.32;45.43
48200;BME280;33990;44.602;10.976;2023-02-20T09:18:45;102267.09;;;20.32;45.14
48200;BME280;33990;44.602;10.976;2023-02-20T09:21:16;102263.44;;;20.33;45.46
48200;BME280;33990;44.602;10.976;2023-02-20T09:23:44;102261.72;;;20.32;45.61
48200;BME280;33990;44.602;10.976;2023-02-20T09:26:12;102266.13;;;20.33;45.16
48200;BME280;33990;44.602;10.976;2023-02-20T09:28:40;102258.84;;;20.35;45.73
48200;BME280;33990;44.602;10.976;2023-02-20T09:31:07;102260.53;;;20.36;45.23
48200;BME280;33990;44.602;10.976;2023-02-20T09:33:35;102266.78;;;20.36;45.30
48200;BME280;33990;44.602;10.976;2023-02-20T09:36:02;102253.25;;;20.38;45.88
48200;BME280;33990;44.602;10.976;2023-02-20T09:38:30;102265.72;;;20.39;45.21
48200;BME280;33990;44.602;10.976;2023-02-20T09:40:58;102264.00;;;20.38;45.00
48200;BME280;33990;44.602;10.976;2023-02-20T09:43:50;102270.25;;;20.38;45.83
48200;BME280;33990;44.602;10.976;2023-02-20T09:46:22;102263.03;;;20.39;45.27
48200;BME280;33990;44.602;10.976;2023-02-20T09:51:58;102276.47;;;20.39;45.13
48200;BME280;33990;44.602;10.976;2023-02-20T09:54:37;102268.50;;;20.37;45.20
48200;BME280;33990;44.602;10.976;2023-02-20T09:57:10;102264.00;;;20.38;45.13
48200;BME280;33990;44.602;10.976;2023-02-20T09:59:42;102266.69;;;20.38;45.40
48200;BME280;33990;44.602;10.976;2023-02-20T10:02:25;102260.44;;;20.37;45.21
48200;BME280;33990;44.602;10.976;2023-02-20T10:05:01;102264.00;;;20.38;45.42
48200;BME280;33990;44.602;10.976;2023-02-20T10:07:33;102267.56;;;20.38;45.25
48200;BME280;33990;44.602;10.976;2023-02-20T10:10:18;102268.50;;;20.37;45.19
48200;BME280;33990;44.602;10.976;2023-02-20T10:13:03;102266.69;;;20.38;45.31
48200;BME280;33990;44.602;10.976;2023-02-20T10:16:06;102261.31;;;20.38;45.20
48200;BME280;33990;44.602;10.976;2023-02-20T10:19:22;102268.50;;;20.37;45.30
48200;BME280;33990;44.602;10.976;2023-02-20T10:27:36;102265.72;;;20.39;45.41
48200;BME280;33990;44.602;10.976;2023-02-20T10:30:11;102270.13;;;20.40;45.22
48200;BME280;33990;44.602;10.976;2023-02-20T10:32:45;102261.19;;;20.39;45.36
48200;BME280;33990;44.602;10.976;2023-02-20T10:35:19;102269.16;;;20.41;45.30
48200;BME280;33990;44.602;10.976;2023-02-20T10:37:55;102261.84;;;20.43;45.49
48200;BME280;33990;44.602;10.976;2023-02-20T10:40:38;102258.41;;;20.41;45.61
48200;BME280;33990;44.602;10.976;2023-02-20T10:46:11;102260.22;;;20.40;45.05
48200;BME280;33990;44.602;10.976;2023-02-20T10:48:42;102261.09;;;20.41;45.20
48200;BME280;33990;44.602;10.976;2023-02-20T10:51:25;102260.16;;;20.42;45.44
48200;BME280;33990;44.602;10.976;2023-02-20T10:54:00;102250.25;;;20.42;45.45
48200;BME280;33990;44.602;10.976;2023-02-20T10:56:37;102251.09;;;20.43;45.25
48200;BME280;33990;44.602;10.976;2023-02-20T10:59:28;102251.09;;;20.43;45.47
48200;BME280;33990;44.602;10.976;2023-02-20T11:01:58;102244.84;;;20.42;45.48
48200;BME280;33990;44.602;10.976;2023-02-20T11:04:34;102241.19;;;20.43;45.19
48200;BME280;33990;44.602;10.976;2023-02-20T11:07:13;102233.97;;;20.44;45.22
48200;BME280;33990;44.602;10.976;2023-02-20T11:09:41;102231.28;;;20.44;45.58
48200;BME280;33990;44.602;10.976;2023-02-20T11:12:23;102230.44;;;20.43;45.35
48200;BME280;33990;44.602;10.976;2023-02-20T11:14:55;102224.09;;;20.44;45.70
48200;BME280;33990;44.602;10.976;2023-02-20T11:17:26;102223.09;;;20.45;45.57
48200;BME280;33990;44.602;10.976;2023-02-20T11:19:57;102225.72;;;20.47;45.17
48200;BME280;33990;44.602;10.976;2023-02-20T11:22:44;102217.00;;;20.43;44.36
48200;BME280;33990;44.602;10.976;2023-02-20T11:25:26;102225.19;;;20.42;44.61
48200;BME280;33990;44.602;10.976;2023-02-20T11:28:18;102222.38;;;20.43;45.29
48200;BME280;33990;44.602;10.976;2023-02-20T11:31:00;102217.84;;;20.44;45.39
48200;BME280;33990;44.602;10.976;2023-02-20T11:33:29;102210.63;;;20.44;45.25
48200;BME280;33990;44.602;10.976;2023-02-20T11:36:15;102204.28;;;20.45;45.33
48200;BME280;33990;44.602;10.976;2023-02-20T11:38:47;102201.50;;;20.47;45.37
48200;BME280;33990;44.602;10.976;2023-02-20T11:41:25;102198.81;;;20.47;45.26
48200;BME280;33990;44.602;10.976;2023-02-20T11:46:31;102190.56;;;20.50;45.60
48200;BME280;33990;44.602;10.976;2023-02-20T11:49:05;102187.06;;;20.48;44.86
48200;BME280;33990;44.602;10.976;2023-02-20T11:51:45;102182.66;;;20.47;45.36
48200;BME280;33990;44.602;10.976;2023-02-20T11:54:16;102179.97;;;20.47;45.25
48200;BME280;33990;44.602;10.976;2023-02-20T11:57:27;102182.66;;;20.47;45.15
48200;BME280;33990;44.602;10.976;2023-02-20T11:59:48;102178.16;;;20.47;45.14
48200;BME280;33990;44.602;10.976;2023-02-20T12:04:59;102163.84;;;20.47;45.22
48200;BME280;33990;44.602;10.976;2023-02-20T12:07:35;102156.63;;;20.47;45.18
48200;BME280;33990;44.602;10.976;2023-02-20T12:12:45;102146.72;;;20.48;45.49
48200;BME280;33990;44.602;10.976;2023-02-20T12:15:18;102143.94;;;20.49;45.19
48200;BME280;33990;44.602;10.976;2023-02-20T12:20:27;102135.03;;;20.49;45.04
48200;BME280;33990;44.602;10.976;2023-02-20T12:26:02;102130.50;;;20.49;45.43
48200;BME280;33990;44.602;10.976;2023-02-20T12:36:42;102111.38;;;20.54;46.25
48200;BME280;33990;44.602;10.976;2023-02-20T12:42:22;102103.28;;;20.54;46.26
48200;BME280;33990;44.602;10.976;2023-02-20T12:47:39;102086.50;;;20.51;46.67
48200;BME280;33990;44.602;10.976;2023-02-20T12:53:19;102075.75;;;20.51;46.51
48200;BME280;33990;44.602;10.976;2023-02-20T12:58:40;102068.53;;;20.51;46.56
48200;BME280;33990;44.602;10.976;2023-02-20T13:01:16;102054.97;;;20.53;47.00
48200;BME280;33990;44.602;10.976;2023-02-20T13:04:24;102058.50;;;20.53;46.75
48200;BME280;33990;44.602;10.976;2023-02-20T13:07:13;102049.50;;;20.54;46.63
48200;BME280;33990;44.602;10.976;2023-02-20T13:10:03;102043.22;;;20.54;46.50
48200;BME280;33990;44.602;10.976;2023-02-20T13:12:33;102043.13;;;20.55;46.61
48200;BME280;33990;44.602;10.976;2023-02-20T13:20:56;102038.47;;;20.57;46.57
48200;BME280;33990;44.602;10.976;2023-02-20T13:23:28;102035.78;;;20.57;46.40
48200;BME280;33990;44.602;10.976;2023-02-20T13:25:56;102032.25;;;20.57;46.45
48200;BME280;33990;44.602;10.976;2023-02-20T13:31:20;102022.34;;;20.57;46.30
48200;BME280;33990;44.602;10.976;2023-02-20T13:34:37;102016.09;;;20.57;46.10
48200;BME280;33990;44.602;10.976;2023-02-20T13:36:42;102019.66;;;20.57;46.21
48200;BME280;33990;44.602;10.976;2023-02-20T13:44:40;102015.13;;;20.58;46.26
48200;BME280;33990;44.602;10.976;2023-02-20T14:02:46;101996.19;;;20.59;46.15
48200;BME280;33990;44.602;10.976;2023-02-20T14:05:32;101989.00;;;20.60;46.10
48200;BME280;33990;44.602;10.976;2023-02-20T14:07:59;101988.13;;;20.59;46.12
48200;BME280;33990;44.602;10.976;2023-02-20T14:10:30;101983.59;;;20.60;45.97
48200;BME280;33990;44.602;10.976;2023-02-20T14:13:15;101988.13;;;20.59;46.13
48200;BME280;33990;44.602;10.976;2023-02-20T14:15:53;101985.44;;;20.59;45.95
48200;BME280;33990;44.602;10.976;2023-02-20T14:18:26;101982.75;;;20.59;46.11
48200;BME280;33990;44.602;10.976;2023-02-20T14:21:07;101982.75;;;20.59;45.96
48200;BME280;33990;44.602;10.976;2023-02-20T14:23:35;101983.72;;;20.58;45.68
48200;BME280;33990;44.602;10.976;2023-02-20T14:26:29;101980.06;;;20.59;45.84
48200;BME280;33990;44.602;10.976;2023-02-20T14:28:58;101979.09;;;20.60;45.85
48200;BME280;33990;44.602;10.976;2023-02-20T14:31:35;101977.25;;;20.61;46.03
48200;BME280;33990;44.602;10.976;2023-02-20T14:34:10;101973.69;;;20.60;45.95
48200;BME280;33990;44.602;10.976;2023-02-20T14:41:54;101970.16;;;20.60;45.84
48200;BME280;33990;44.602;10.976;2023-02-20T14:44:22;101962.09;;;20.60;45.75
48200;BME280;33990;44.602;10.976;2023-02-20T14:46:55;101955.72;;;20.61;45.96
48200;BME280;33990;44.602;10.976;2023-02-20T14:49:28;101961.97;;;20.61;46.00
48200;BME280;33990;44.602;10.976;2023-02-20T14:54:32;101960.25;;;20.60;45.84
48200;BME280;33990;44.602;10.976;2023-02-20T14:56:59;101962.72;;;20.63;46.15
48200;BME280;33990;44.602;10.976;2023-02-20T14:59:35;101965.41;;;20.63;46.38
48200;BME280;33990;44.602;10.976;2023-02-20T15:02:15;101960.88;;;20.64;46.10